Latest Weather Observations for Cooma Airport

IDN60801

Issued at 4:32 am EST Saturday 22 June 2024 (issued every 10 minutes, with the page automatically refreshed every 10 minutes)

About weather observations | Map of weather stations | Latest weather observations for NSW | Other Formats
Station Details ID: 070217 Name: COOMA AIRPORT AWS Lat: -36.29 Lon: 148.97 Height: 930.0 m
Data from the previous 72 hours. | See also: Recent months at Cooma Airport
Date/Time
EST
Temp
°C
App
Temp
°C
Dew
Point
°C
Rel
Hum
%
Delta-T
°C
Wind Press
QNH
hPa
Press
MSL
hPa
Rain since
9am
mm
Dir  Spd
km/h
Gust
km/h
Spd
kts
Gust
kts
22/04:30am 2.8 -2.9 2.7 99 0.0 SW 22 28 12 15 1024.8 1026.2 3.4
22/04:00am 3.1 -2.6 3.0 99 0.0 SW 22 30 12 16 1024.6 1026.1 3.4
22/03:30am 3.0 -2.7 2.9 99 0.0 SW 22 30 12 16 1024.5 1026.0 3.4
22/03:02am 3.2 -2.1 3.1 99 0.0 SW 20 28 11 15 1024.5 1026.0 3.4
22/03:00am 3.2 -2.1 3.1 99 0.0 SW 20 26 11 14 1024.5 1026.0 3.4
22/02:37am 3.2 -2.5 3.1 99 0.0 SW 22 30 12 16 1024.4 1025.9 3.4
22/02:30am 3.2 -2.5 3.1 99 0.0 SW 22 30 12 16 1024.4 1025.9 3.4
22/02:00am 3.3 -3.9 3.2 99 0.0 SW 30 37 16 20 1024.0 1025.4 3.4
22/01:30am 3.2 -2.8 3.1 99 0.0 SW 24 30 13 16 1023.7 1025.1 3.4
22/01:24am 3.2 -3.2 3.1 99 0.0 SW 26 32 14 17 1023.6 - 3.4
22/01:00am 3.1 -3.3 3.0 99 0.0 SW 26 32 14 17 1023.6 1025.0 3.4
22/12:53am 3.1 -3.0 3.0 99 0.0 SW 24 32 13 17 1023.6 1025.0 3.4
22/12:30am 3.1 -3.0 3.0 99 0.0 SW 24 30 13 16 1023.6 1025.0 3.4
22/12:00am 3.1 -2.6 3.0 99 0.0 SW 22 26 12 14 1023.8 1025.2 3.4
 
Date/Time
EST
Temp
°C
App
Temp
°C
Dew
Point
°C
Rel
Hum
%
Delta-T
°C
Wind Press
QNH
hPa
Press
MSL
hPa
Rain since
9am
mm
Dir  Spd
km/h
Gust
km/h
Spd
kts
Gust
kts
21/11:32pm 2.9 -4.0 2.8 99 0.0 SSW 28 35 15 19 1023.7 - 3.4
21/11:30pm 2.9 -4.0 2.8 99 0.0 SW 28 35 15 19 1023.7 - 3.4
21/11:00pm 3.0 -3.1 2.9 99 0.0 SW 24 32 13 17 1023.8 1025.2 3.4
21/10:39pm 3.5 -3.2 3.4 99 0.0 SW 28 35 15 19 1023.6 1025.0 3.4
21/10:30pm 3.5 -3.2 3.5 100 0.0 SW 28 37 15 20 1023.4 1024.9 3.4
21/10:04pm 3.4 -2.6 3.4 100 0.0 SW 24 30 13 16 1023.2 1024.7 3.2
21/10:00pm 3.3 -2.7 3.3 100 0.0 SW 24 30 13 16 1023.1 1024.5 3.2
21/09:58pm 3.3 -2.7 3.3 100 0.0 SW 24 30 13 16 1023.1 - 3.2
21/09:30pm 2.8 -2.6 2.7 99 0.0 SW 20 26 11 14 1022.9 - 3.2
21/09:00pm 1.7 -3.8 1.6 99 0.0 SW 20 24 11 13 1022.8 1024.2 3.2
21/08:30pm 2.5 -2.7 2.4 99 0.0 SSW 19 22 10 12 1022.7 - 3.2
21/08:00pm 2.8 -1.6 2.7 99 0.0 SW 15 19 8 10 1022.6 1024.0 3.2
21/07:30pm 2.1 -2.8 2.0 99 0.0 SW 17 20 9 11 1022.3 1023.8 3.2
21/07:11pm 2.0 -2.9 1.9 99 0.0 SW 17 20 9 11 1022.0 - 3.2
21/07:00pm 2.6 -2.6 2.5 99 0.0 SW 19 24 10 13 1022.0 1023.4 3.2
21/06:30pm 3.2 -1.9 3.1 99 0.0 SW 19 22 10 12 1021.7 1023.1 3.2
21/06:00pm 3.2 -2.1 3.1 99 0.0 SW 20 26 11 14 1021.4 1022.7 3.2
21/05:49pm 3.3 -1.4 3.2 99 0.0 SW 17 20 9 11 1021.3 1022.6 3.2
21/05:32pm 3.3 -1.4 3.2 99 0.0 SW 17 20 9 11 1021.0 1022.4 3.0
21/05:30pm 3.3 -1.4 3.2 99 0.0 SW 17 22 9 12 1021.0 1022.4 3.0
21/05:00pm 3.2 -1.1 3.1 99 0.0 SW 15 20 8 11 1020.7 1022.1 2.8
21/04:30pm 3.2 -1.1 3.1 99 0.0 SSW 15 20 8 11 1020.4 1021.7 2.2
21/04:00pm 3.3 -1.8 3.2 99 0.0 SW 19 30 10 16 1020.2 1021.5 1.6
21/03:55pm 3.2 -2.1 3.1 99 0.0 SW 20 30 11 16 1020.0 - 1.4
21/03:36pm 3.4 -2.2 3.3 99 0.0 SW 22 30 12 16 1019.8 1021.2 0.8
21/03:30pm 3.3 -2.3 3.2 99 0.0 SW 22 30 12 16 1019.7 - 0.8
21/03:20pm 3.4 -3.4 3.3 99 0.0 SSW 28 35 15 19 1019.6 1021.0 0.4
21/03:00pm 4.3 -1.5 4.2 99 0.0 SW 24 30 13 16 1019.3 1020.6 0.2
21/02:48pm 4.5 -0.9 4.4 99 0.0 SW 22 32 12 17 1019.2 1020.5 0.0
21/02:39pm 4.7 -0.3 4.6 99 0.0 SSW 20 26 11 14 1019.2 1020.5 0.0
21/02:30pm 4.7 -0.7 4.6 99 0.0 SSW 22 28 12 15 1019.1 1020.4 0.0
21/02:08pm 4.9 -0.1 4.8 99 0.0 SSW 20 28 11 15 1019.0 1020.3 0.0
21/02:00pm 5.0 0.1 4.9 99 0.0 SSW 20 28 11 15 1018.8 1020.2 0.0
21/01:30pm 5.3 0.4 4.1 92 0.5 SSW 19 24 10 13 1018.6 1019.9 0.0
21/01:00pm 6.1 1.1 3.4 83 1.2 SSW 19 26 10 14 1018.6 1019.9 0.0
21/12:36pm 5.4 1.6 3.9 90 0.7 S 13 19 7 10 1018.7 1020.1 0.0
21/12:30pm 5.1 0.9 3.9 92 0.5 S 15 19 8 10 1018.8 1020.2 0.0
21/12:00pm 5.7 1.4 3.4 85 1.0 SSW 15 20 8 11 1018.8 1020.2 0.0
21/11:30am 6.0 1.1 2.1 76 1.7 SSW 17 22 9 12 1019.0 1020.3 0.0
21/11:19am 6.0 2.2 1.7 74 1.8 SSW 11 17 6 9 1019.0 1020.3 0.0
21/11:00am 5.5 1.5 0.7 71 2.0 SSW 11 17 6 9 1019.2 1020.5 0.0
21/10:39am 4.9 0.5 0.1 71 1.9 SSW 13 17 7 9 1019.2 1020.5 0.0
21/10:30am 5.0 0.6 0.2 71 2.0 SSW 13 19 7 10 1019.2 1020.5 0.0
21/10:00am 4.4 -0.1 -0.2 72 1.8 SW 13 19 7 10 1019.1 1020.4 0.0
21/09:30am 2.5 -0.6 0.2 85 0.9 SSW 6 9 3 5 1018.8 1020.2 0.0
21/09:00am 0.9 -1.3 -1.2 86 0.8 CALM 0 0 0 0 1018.7 1020.1 0.2
21/08:30am 0.0 -2.1 -0.8 94 0.3 CALM 0 0 0 0 1018.5 1019.8 0.2
21/08:00am -2.6 -5.4 -3.6 93 0.2 S 2 6 1 3 1018.2 1019.5 0.0
21/07:30am -3.5 -7.2 -4.6 92 0.2 SSW 6 7 3 4 1018.0 1019.3 0.0
21/07:00am -3.6 -7.9 -4.6 93 0.2 SW 9 11 5 6 1017.5 1018.8 0.0
21/06:30am -4.2 -8.0 -5.2 93 0.1 SW 6 7 3 4 1017.2 1018.5 0.0
21/06:00am -4.0 -7.0 -5.0 93 0.2 SSW 2 6 1 3 1016.8 1018.0 0.0
21/05:30am -4.3 -8.1 -5.5 91 0.2 SSW 6 7 3 4 1016.3 - 0.0
21/05:00am -4.0 -8.7 -5.1 92 0.2 SW 11 11 6 6 1016.3 1017.6 0.0
21/04:30am -4.0 -8.7 -5.0 93 0.2 SW 11 13 6 7 1016.1 1017.4 0.0
21/04:00am -4.8 -8.8 -5.6 94 0.1 SSW 7 9 4 5 1016.1 1017.4 0.0
21/03:30am -5.7 -9.6 -6.5 94 0.0 SW 6 9 3 5 1015.8 1017.0 0.0
21/03:00am -6.2 -9.0 -7.1 93 0.0 CALM 0 6 0 3 1015.9 1017.2 0.0
21/02:30am -6.5 -9.4 -7.9 90 0.2 CALM 0 7 0 4 1015.7 1016.9 0.0
21/02:00am -3.4 -7.3 -4.2 94 0.1 WSW 7 7 4 4 1015.6 1016.8 0.0
21/01:30am -5.4 -8.2 -7.2 87 0.3 CALM 0 6 0 3 1015.5 1016.7 0.0
21/01:00am -4.0 -7.1 -6.0 86 0.5 W 2 6 1 3 1015.5 1016.7 0.0
21/12:30am -3.2 -7.0 -5.8 82 0.7 SW 6 7 3 4 1015.6 - 0.0
21/12:00am -0.8 -5.0 -4.3 77 1.2 W 9 11 5 6 1015.8 1017.0 0.0
 
Date/Time
EST
Temp
°C
App
Temp
°C
Dew
Point
°C
Rel
Hum
%
Delta-T
°C
Wind Press
QNH
hPa
Press
MSL
hPa
Rain since
9am
mm
Dir  Spd
km/h
Gust
km/h
Spd
kts
Gust
kts
20/11:30pm -0.1 -3.9 -3.6 77 1.2 WSW 7 9 4 5 1015.9 1017.2 0.0
20/11:00pm -1.4 -5.2 -3.6 85 0.7 SW 7 9 4 5 1016.0 1017.3 0.0
20/10:30pm -0.9 -3.8 -3.9 80 1.0 WNW 2 6 1 3 1016.3 1017.6 0.0
20/10:00pm -0.8 -4.4 -4.0 79 1.1 SW 6 7 3 4 1016.2 1017.5 0.0
20/09:30pm -2.1 -4.6 -3.8 88 0.5 CALM 0 4 0 2 1016.3 1017.6 0.0
20/09:00pm -2.3 -5.6 -4.2 87 0.5 NW 4 7 2 4 1016.1 1017.4 0.0
20/08:30pm -2.7 -5.3 -4.9 85 0.6 CALM 0 0 0 0 1016.1 1017.4 0.0
20/08:00pm -3.2 -5.8 -5.0 87 0.4 CALM 0 0 0 0 1016.2 1017.5 0.0
20/07:30pm -2.9 -5.5 -4.8 87 0.5 CALM 0 0 0 0 1016.2 1017.5 0.0
20/07:00pm -4.2 -6.9 -6.3 85 0.5 CALM 0 0 0 0 1015.9 1017.2 0.0
20/06:30pm -3.0 -5.7 -5.8 81 0.8 CALM 0 0 0 0 1015.5 1016.7 0.0
20/06:00pm -1.9 -4.5 -5.2 78 1.0 CALM 0 0 0 0 1015.3 1016.6 0.0
20/05:30pm -0.8 -3.5 -5.9 68 1.6 CALM 0 0 0 0 1014.9 1016.1 0.0
20/05:00pm 2.4 -0.2 -5.0 58 2.7 CALM 0 0 0 0 1014.8 1016.0 0.0
20/04:30pm 5.3 1.4 -5.1 47 3.7 N 7 9 4 5 1014.8 1016.0 0.0
20/04:00pm 7.0 2.7 -4.4 44 4.2 NNE 9 11 5 6 1014.6 1015.8 0.0
20/03:30pm 7.4 3.2 -4.0 44 4.3 NNE 9 13 5 7 1014.7 1015.9 0.0
20/03:00pm 7.9 4.0 -1.6 51 3.8 NE 9 11 5 6 1014.7 1015.9 0.0
20/02:30pm 7.8 3.9 -4.6 41 4.6 NNE 7 11 4 6 1014.6 1015.8 0.0
20/02:00pm 7.3 3.1 -3.5 46 4.1 NE 9 19 5 10 1014.5 1015.7 0.0
20/01:30pm 5.5 0.8 -4.6 48 3.7 NE 11 15 6 8 1014.6 1015.8 0.0
20/01:00pm 4.2 0.0 -1.0 69 2.0 NE 11 13 6 7 1014.7 1015.9 0.0
20/12:30pm 2.6 -1.3 1.3 91 0.5 NE 11 13 6 7 1015.1 1016.4 0.0
20/12:09pm 1.9 -1.5 1.8 99 0.0 NNE 9 13 5 7 1015.7 - 0.0
20/12:00pm 1.7 -1.7 1.6 99 0.0 NNE 9 13 5 7 1015.7 1016.9 0.0
20/11:30am -0.3 -4.4 -0.4 99 0.0 NE 11 15 6 8 1016.1 1017.4 0.0
20/11:00am -1.2 -5.8 -1.3 99 0.0 NE 13 15 7 8 1016.5 1017.8 0.0
20/10:57am -1.2 -5.5 -1.3 99 0.0 NE 11 15 6 8 1016.7 1017.9 0.0
20/10:54am -1.4 -6.1 -1.5 99 0.0 NNE 13 15 7 8 1016.7 1017.9 0.0
20/10:37am -1.8 -6.1 -1.9 99 0.0 NNE 11 13 6 7 1016.8 1018.0 0.0
20/10:30am -1.8 -5.8 -1.9 99 0.0 NNE 9 13 5 7 1016.8 1018.0 0.0
20/10:00am -3.2 -6.9 -3.3 99 -0.1 NNE 7 9 4 5 1017.0 1018.3 0.0
20/09:30am -4.2 -8.4 -4.3 99 -0.1 N 9 11 5 6 1017.2 1018.5 0.0
20/09:00am -5.4 -9.8 -5.5 99 -0.2 NNE 9 11 5 6 1017.0 1018.3 0.0
20/08:30am -5.8 -10.6 -5.9 99 -0.2 NNE 11 13 6 7 1016.9 1018.2 0.0
20/08:00am -6.7 -11.2 -7.0 98 -0.2 NNE 9 13 5 7 1016.2 1017.5 0.0
20/07:30am -7.3 -11.5 -7.7 97 -0.1 N 7 9 4 5 1015.9 1017.2 0.0
20/07:00am -7.1 -11.7 -7.5 97 -0.1 N 9 13 5 7 1015.8 1017.0 0.0
20/06:30am -7.1 -11.7 -7.5 97 -0.1 N 9 13 5 7 1015.6 1016.8 0.0
20/06:00am -6.6 -10.7 -6.9 98 -0.2 N 7 9 4 5 1015.3 1016.6 0.0
20/05:30am -6.8 -11.7 -7.1 98 -0.2 N 11 13 6 7 1015.5 1016.7 0.0
20/05:00am -7.2 -12.1 -7.5 98 -0.2 N 11 11 6 6 1015.2 1016.5 0.0
20/04:54am -7.2 -12.1 -7.5 98 -0.2 N 11 13 6 7 1015.2 1016.5 0.0
20/04:48am -7.1 -12.0 -7.4 98 -0.2 N 11 13 6 7 1015.2 1016.5 0.0
20/04:30am -7.2 -12.1 -7.6 97 -0.1 N 11 13 6 7 1015.2 1016.5 0.0
20/04:26am -6.9 -11.8 -7.2 98 -0.2 N 11 13 6 7 1015.2 1016.5 0.0
20/04:16am -7.0 -11.9 -7.1 99 -0.2 N 11 13 6 7 1015.2 1016.5 0.0
20/04:10am -7.4 -12.0 -7.8 97 -0.1 N 9 11 5 6 1015.1 1016.4 0.0
20/04:09am -7.6 -12.2 -8.1 96 -0.1 N 9 11 5 6 1015.1 1016.4 0.0
20/04:00am -8.6 -13.3 -9.5 93 0.0 NNE 9 9 5 5 1015.1 1016.4 0.0
20/03:38am -8.7 -13.1 -9.6 93 0.0 N 7 9 4 5 1015.1 - 0.0
20/03:35am -8.8 -13.2 -9.7 93 0.0 N 7 9 4 5 1015.1 - 0.0
20/03:30am -8.7 -12.5 -9.6 93 0.0 N 4 9 2 5 1015.1 1016.4 0.0
20/03:20am -8.5 -11.5 -9.4 93 0.0 CALM 0 0 0 0 1015.2 1016.5 0.0
20/03:00am -8.1 -11.1 -8.9 94 -0.1 CALM 0 2 0 1 1015.2 1016.5 0.0
20/02:30am -7.3 -11.3 -7.4 99 -0.2 N 6 7 3 4 1015.2 1016.5 0.0
20/02:27am -7.5 -11.5 -7.8 98 -0.2 NNE 6 9 3 5 1015.2 1016.5 0.0
20/02:25am -7.8 -12.0 -8.2 97 -0.2 NE 7 9 4 5 1015.2 1016.5 0.0
20/02:22am -8.2 -12.5 -8.9 95 -0.1 NE 7 9 4 5 1015.2 1016.5 0.0
20/02:00am -8.7 -11.7 -9.8 92 0.0 CALM 0 0 0 0 1015.3 1016.6 0.0
20/01:30am -8.3 -11.3 -9.6 90 0.1 CALM 0 0 0 0 1015.3 1016.6 0.0
20/01:00am -7.9 -10.9 -8.8 93 0.0 CALM 0 0 0 0 1015.5 1016.7 0.0
20/12:30am -7.1 -10.0 -7.9 94 0.0 CALM 0 0 0 0 1015.7 1016.9 0.0
20/12:00am -7.1 -10.0 -8.0 93 0.0 CALM 0 0 0 0 1015.8 1017.0 0.0
 
Date/Time
EST
Temp
°C
App
Temp
°C
Dew
Point
°C
Rel
Hum
%
Delta-T
°C
Wind Press
QNH
hPa
Press
MSL
hPa
Rain since
9am
mm
Dir  Spd
km/h
Gust
km/h
Spd
kts
Gust
kts
19/11:30pm -6.4 -9.2 -7.2 94 0.0 CALM 0 0 0 0 1015.9 1017.2 0.0
19/11:00pm -6.8 -9.7 -7.9 92 0.1 CALM 0 0 0 0 1015.7 1016.9 0.0
19/10:30pm -6.7 -9.6 -7.8 92 0.1 CALM 0 0 0 0 1015.7 1016.9 0.0
19/10:00pm -5.5 -8.6 -6.2 95 0.0 E 2 6 1 3 1015.5 1016.7 0.0
19/09:30pm -5.8 -8.6 -7.2 90 0.2 CALM 0 0 0 0 1015.6 1016.8 0.0
19/09:00pm -4.7 -7.4 -5.8 92 0.2 CALM 0 0 0 0 1015.3 1016.6 0.0
19/08:30pm -4.4 -7.0 -5.2 94 0.1 CALM 0 0 0 0 1015.2 1016.5 0.0
19/08:00pm -4.3 -7.0 -5.5 91 0.2 CALM 0 0 0 0 1015.0 1016.3 0.0
19/07:30pm -4.0 -6.7 -5.7 88 0.4 CALM 0 0 0 0 1014.8 1016.0 0.0
19/07:00pm -3.1 -5.6 -4.2 92 0.2 CALM 0 0 0 0 1014.8 1016.0 0.0
19/06:30pm -3.4 -6.0 -5.1 88 0.4 CALM 0 0 0 0 1014.8 1016.0 0.0
19/06:00pm -2.4 -5.0 -5.0 82 0.8 CALM 0 0 0 0 1014.5 1015.7 0.0
19/05:30pm -0.4 -2.9 -4.1 76 1.3 CALM 0 0 0 0 1014.1 1015.4 0.0
19/05:00pm 2.8 0.0 -3.5 63 2.3 SSW 2 6 1 3 1013.9 1015.1 0.0
19/04:30pm 6.8 3.7 -2.4 52 3.6 SW 4 6 2 3 1013.7 1014.9 0.0
19/04:00pm 7.1 3.3 -3.7 46 4.1 S 7 9 4 5 1013.4 1014.6 0.0
19/03:30pm 7.6 4.5 -3.0 47 4.1 S 4 9 2 5 1013.2 1014.4 0.0
19/03:00pm 7.9 4.3 -3.3 45 4.3 SW 6 9 3 5 1013.4 1014.6 0.0
19/02:30pm 7.5 3.7 -3.4 46 4.2 S 7 11 4 6 1013.6 1014.8 0.0
19/02:00pm 7.7 4.6 -2.3 49 3.9 SSE 4 13 2 7 1013.6 1014.8 0.0
19/01:30pm 7.2 3.7 -1.7 53 3.5 S 7 11 4 6 1013.8 1015.0 0.0
19/01:00pm 6.6 2.6 -2.3 53 3.5 SSE 9 17 5 9 1013.9 1015.1 0.0
19/12:30pm 6.1 2.1 -2.0 56 3.2 S 9 15 5 8 1014.4 1015.6 0.0
19/12:00pm 5.7 1.9 -1.0 62 2.7 S 9 13 5 7 1014.9 1016.1 0.0
19/11:30am 5.3 2.0 -0.9 64 2.5 SW 6 13 3 7 1015.6 1016.8 0.0
19/11:00am 4.3 0.2 -0.5 71 1.9 S 11 15 6 8 1015.8 1017.0 0.0
19/10:30am 3.9 -0.2 -0.3 74 1.7 SSE 11 13 6 7 1016.0 1017.3 0.0
19/10:00am 3.5 0.8 0.2 79 1.3 ENE 4 7 2 4 1016.2 1017.5 0.0
19/09:30am 2.1 0.0 -0.8 81 1.1 CALM 0 0 0 0 1016.1 1017.4 0.0
19/09:00am 1.1 -1.0 -0.7 88 0.7 CALM 0 0 0 0 1016.2 1017.5 0.0
19/08:30am -1.7 -3.9 -1.8 99 0.0 CALM 0 0 0 0 1016.0 1017.3 0.0
19/08:00am -5.3 -8.0 -5.8 96 -0.1 CALM 0 0 0 0 1015.8 1017.0 0.0
19/07:30am -6.7 -9.6 -7.6 93 0.0 CALM 0 0 0 0 1015.5 1016.7 0.0
19/07:00am -6.1 -8.9 -6.8 95 0.0 CALM 0 0 0 0 1015.5 1016.7 0.0
19/06:30am -6.4 -10.6 -7.5 92 0.1 S 7 9 4 5 1015.1 1016.4 0.0
19/06:00am -5.3 -9.3 -5.7 97 -0.1 SSW 7 9 4 5 1015.0 1016.3 0.0
19/05:30am -4.8 -8.7 -4.9 99 -0.2 SSW 7 7 4 4 1014.9 1016.1 0.0
19/05:00am -4.7 -8.6 -4.8 99 -0.2 SW 7 7 4 4 1014.9 1016.1 0.0

Other formats

Comma delimited format used in spreadsheet applications
http://www.bom.gov.au/fwo/IDN60801/IDN60801.94921.axf

JavaScript Object Notation format (JSON) in row-major order
http://www.bom.gov.au/fwo/IDN60801/IDN60801.94921.json

Data quality

Most of these data are generated automatically and are frequently updated. Quality checks on data are not normally performed. It is possible for incorrect values to appear. Refer to information at About Latest Weather Observations and please check the disclaimer before using these data.